Time;durP1;ratioP1;P1;durP2;ratioP2;P2;SDS_P1;SDS_P2;PMS_P1;PMS_P2;Temp;Humidity;BMP_temperature;BMP_pressure;BME280_temperature;BME280_humidity;BME280_pressure;Samples;Min_cycle;Max_cycle;Signal;HPM_P1;HPM_P2
2021/12/02 00:00:52;;;;;;;4.70;3.57;;;;;;;13.92;34.59;99980.94;125850;1096;67855;-90
2021/12/02 00:07:01;;;;;;;9.83;3.80;;;;;;;13.92;34.32;99980.94;126383;1096;67852;-91
2021/12/02 00:12:44;;;;;;;6.15;4.00;;;;;;;13.91;34.53;99990.52;126560;1095;67775;-90
2021/12/02 00:21:03;;;;;;;6.23;3.70;;;;;;;13.91;34.43;99995.30;125712;1096;67780;-90
2021/12/02 00:24:14;;;;;;;5.73;3.90;;;;;;;13.90;34.40;100005.67;126389;1097;67763;31
2021/12/02 00:33:26;;;;;;;6.63;3.67;;;;;;;13.89;34.44;100012.48;125555;1096;67836;-88
2021/12/02 00:39:27;;;;;;;7.20;3.70;;;;;;;13.88;34.15;99997.03;125542;1097;67821;-91
2021/12/02 00:45:49;;;;;;;5.67;3.60;;;;;;;13.87;34.54;99992.70;127807;1095;65729;-91
2021/12/02 00:51:43;;;;;;;4.67;3.60;;;;;;;13.88;34.34;99999.81;126631;1090;67872;-89
2021/12/02 00:57:45;;;;;;;5.23;3.33;;;;;;;13.87;34.52;100012.18;126733;1097;67784;-91
2021/12/02 01:01:04;;;;;;;6.00;3.53;;;;;;;13.87;34.52;99998.27;126646;1091;66134;-90
2021/12/02 01:06:52;;;;;;;6.73;3.70;;;;;;;13.88;34.12;99991.47;126511;1097;65842;-89
2021/12/02 01:10:04;;;;;;;4.30;3.20;;;;;;;13.87;34.38;99989.14;126473;1095;67770;-91
2021/12/02 01:16:10;;;;;;;5.30;3.67;;;;;;;13.87;34.30;100000.27;126414;1097;67878;-91
2021/12/02 01:22:01;;;;;;;5.17;3.60;;;;;;;13.87;34.28;100003.05;126437;1096;67869;-91
2021/12/02 01:27:51;;;;;;;6.60;3.67;;;;;;;13.86;34.34;100001.51;126555;1095;67881;-89
2021/12/02 01:36:37;;;;;;;4.45;3.40;;;;;;;13.85;34.47;99997.97;126328;1096;67853;-90
2021/12/02 01:42:28;;;;;;;5.13;3.40;;;;;;;13.84;34.20;99993.65;126629;1096;67843;-90
2021/12/02 01:45:41;;;;;;;5.17;3.63;;;;;;;13.85;34.25;99994.41;126432;1090;67872;-90
2021/12/02 01:51:55;;;;;;;5.50;3.50;;;;;;;13.81;34.21;100003.72;126461;1096;67801;-90
2021/12/02 01:57:45;;;;;;;5.57;3.40;;;;;;;13.81;34.06;99987.03;126639;1094;67836;-89
2021/12/02 02:03:36;;;;;;;4.67;3.60;;;;;;;13.82;34.29;99977.44;125564;1096;67827;-90
2021/12/02 02:09:24;;;;;;;6.30;3.40;;;;;;;13.82;34.23;99977.44;126289;1096;67769;-89
2021/12/02 02:15:16;;;;;;;4.87;3.33;;;;;;;13.82;34.16;99985.79;126850;1091;68003;-90
2021/12/02 02:29:56;;;;;;;4.73;3.23;;;;;;;13.80;33.99;99954.89;126546;1096;67852;-89
2021/12/02 02:39:02;;;;;;;4.57;3.57;;;;;;;13.79;33.99;99958.13;125730;1096;68280;-88
2021/12/02 02:44:53;;;;;;;4.70;3.27;;;;;;;13.79;34.22;99944.23;126389;1096;67859;-92
2021/12/02 02:50:46;;;;;;;5.30;3.60;;;;;;;13.77;34.12;99955.05;125499;1097;65823;31
2021/12/02 02:56:45;;;;;;;4.80;3.30;;;;;;;13.76;33.99;99965.42;125381;1097;67935;-89
2021/12/02 03:06:18;;;;;;;;;;;;;;;;;;;;;
2021/12/02 03:11:45;;;;;;;6.70;3.63;;;;;;;13.74;34.05;99961.55;126430;1096;67759;31
2021/12/02 03:20:50;;;;;;;5.53;3.63;;;;;;;13.73;34.15;99957.23;125784;1090;67732;31
2021/12/02 03:26:55;;;;;;;5.07;3.33;;;;;;;13.73;33.57;99968.36;126625;1096;67887;-91
2021/12/02 03:30:06;;;;;;;8.87;4.37;;;;;;;13.73;34.02;99971.14;127051;1096;67859;-88
2021/12/02 03:33:12;;;;;;;7.53;3.73;;;;;;;13.73;34.06;99968.36;126932;1096;66604;-90
2021/12/02 03:39:18;;;;;;;6.50;3.90;;;;;;;13.73;34.02;99973.92;126385;1096;67833;-90
2021/12/02 03:45:09;;;;;;;5.07;3.80;;;;;;;13.73;33.97;99966.36;126455;1090;67811;-89
2021/12/02 03:50:54;;;;;;;;;;;;;;;13.71;34.11;99968.09;126602;1096;67818;-90
2021/12/02 03:56:42;;;;;;;5.53;3.80;;;;;;;13.72;34.16;99969.63;126495;1097;67855;-91
2021/12/02 04:05:42;;;;;;;9.75;6.90;;;;;;;13.71;33.92;99965.30;125776;1095;67861;-89
2021/12/02 04:11:44;;;;;;;6.60;4.70;;;;;;;13.72;33.90;99969.63;126342;1097;67681;-90
2021/12/02 04:17:43;;;;;;;6.27;4.60;;;;;;;13.76;34.01;99967.42;126339;1095;67890;-90
2021/12/02 04:23:28;;;;;;;6.83;5.07;;;;;;;13.79;33.98;99958.92;126303;1097;67922;-91
2021/12/02 04:29:18;;;;;;;9.40;4.55;;;;;;;13.83;33.86;99961.52;126176;1096;67872;-88
2021/12/02 04:38:15;;;;;;;6.43;4.30;;;;;;;13.84;34.08;99943.58;125085;1097;67840;-89
2021/12/02 04:49:55;;;;;;;23.50;12.70;;;;;;;13.82;33.85;99930.16;126159;1095;67766;-89
2021/12/02 04:55:52;;;;;;;19.03;11.20;;;;;;;13.79;33.87;99927.53;125420;1096;67856;-88
2021/12/02 05:01:49;;;;;;;15.30;9.40;;;;;;;13.74;33.84;99922.63;126306;1096;67859;-88
2021/12/02 05:07:48;;;;;;;15.57;9.30;;;;;;;13.71;34.08;99931.94;117338;1096;67859;-88
2021/12/02 05:14:05;;;;;;;13.77;8.80;;;;;;;13.71;33.82;99943.81;125243;1097;67888;-87
2021/12/02 05:32:09;;;;;;;14.50;8.70;;;;;;;13.38;33.71;99948.13;127320;1096;65180;-91
2021/12/02 05:38:15;;;;;;;13.13;7.90;;;;;;;13.05;34.10;99946.09;128242;1097;65855;31
2021/12/02 06:19:27;;;;;;;14.53;7.53;;;;;;;12.16;35.01;99974.58;126756;1103;67755;-92
2021/12/02 07:08:36;;;;;;;31.43;15.30;;;;;;;13.77;35.15;99969.74;127240;1101;65531;-92
2021/12/02 08:04:07;;;;;;;27.23;15.57;;;;;;;14.95;34.46;99971.73;121232;1097;67586;-90
2021/12/02 11:08:50;;;;;;;22.27;8.30;;;;;;;16.21;33.86;99818.73;126311;1103;68003;-91
2021/12/02 16:58:11;;;;;;;40.45;28.25;;;;;;;16.05;35.25;99691.71;127484;1101;84285;31
